KFVX

Details ICAO KFVX
Name Farmville Rgnl
Region United States
Timezone America/New_York (UTC-5.0)
Plans Departing 0
Arriving 3
Stats Elevation 417 ft / 127 m (AMSL)
Location 37.357464° -78.438190°
Runways 1
Magnetic Variation 9.676° W
Sunrise 2017-12-18 12:24:09 UTC / 2017-12-18 07:24:09 Local
Sunset 2017-12-18 21:59:29 UTC / 2017-12-18 16:59:29 Local
Advertisement - Login to hide

Runways

ID Width Length Bearing (true) Bearing (mag) Surface Threshold Offset Overrun Length
03 75 ft / 23 m 4,445 ft / 1,355 m 19.07° 28.75° Asphalt 0 ft / 0 m 0 ft / 0 m
21 75 ft / 23 m 4,445 ft / 1,355 m 199.08° 208.76° Asphalt 0 ft / 0 m 0 ft / 0 m

Map

Weather


0- 5 10 15 20 25 30 35+ Temperature / ° C

Clouds and Precipitation
Forecast for 2017-12-18 18:00 UTC. Updated 2 minutes ago

Ground ~20,000 ft ~40,000 ft Winds

METAR

KFVX 181315Z AUTO 24003KT 10SM CLR 03/03 A3014 RMK AO2 T00260026

TAF

Not found

Frequencies

Recorded 132.72 MHz AWOS 3
Unicom 122.80 MHz CTAF/UNICOM
Warning: Do not use this data for real-world aviation or navigation. No guarantee of current accuracy is given.